Time;durP1;ratioP1;P1;durP2;ratioP2;P2;SDS_P1;SDS_P2;PMS_P1;PMS_P2;Temp;Humidity;BMP_temperature;BMP_pressure;BME280_temperature;BME280_humidity;BME280_pressure;Samples;Min_cycle;Max_cycle;Signal;HPM_P1;HPM_P2
2023/12/07 00:01:11;;;;;;;28.90;11.23;;;;;;;9.55;73.93;98682.19;5023173;28;20185;-90
2023/12/07 00:03:38;;;;;;;24.87;11.13;;;;;;;9.69;73.71;98684.88;5030043;28;20661;-91
2023/12/07 00:06:04;;;;;;;27.07;11.30;;;;;;;9.74;73.27;98684.63;5031474;28;20181;-90
2023/12/07 00:08:31;;;;;;;30.07;12.10;;;;;;;9.71;73.41;98682.16;5029935;28;20246;-91
2023/12/07 00:10:58;;;;;;;29.87;10.63;;;;;;;9.81;73.30;98680.72;5030108;28;20194;-91
2023/12/07 00:13:24;;;;;;;24.20;11.47;;;;;;;9.86;72.72;98682.13;5029937;28;20182;-91
2023/12/07 00:15:50;;;;;;;25.37;11.20;;;;;;;9.93;72.38;98674.78;5028880;28;20233;-91
2023/12/07 00:18:17;;;;;;;32.90;10.30;;;;;;;9.89;72.10;98683.75;5011391;28;20218;-90
2023/12/07 00:20:44;;;;;;;29.27;12.10;;;;;;;9.89;72.24;98684.59;5010000;28;20190;-91
2023/12/07 00:23:11;;;;;;;24.83;10.90;;;;;;;9.90;72.12;98680.19;5025049;28;20205;-90
2023/12/07 00:25:38;;;;;;;23.13;10.60;;;;;;;9.87;72.08;98686.47;5030846;28;20219;-90
2023/12/07 00:28:05;;;;;;;22.70;11.87;;;;;;;9.85;72.04;98677.81;5029581;28;20177;-91
2023/12/07 00:30:31;;;;;;;25.10;9.23;;;;;;;9.96;71.25;98687.69;5029684;28;20269;-91
2023/12/07 00:32:57;;;;;;;20.70;9.20;;;;;;;9.98;71.60;98687.63;5029878;28;20208;-90
2023/12/07 00:35:24;;;;;;;27.90;10.53;;;;;;;9.99;71.50;98690.13;5029667;28;20556;-91
2023/12/07 00:37:50;;;;;;;22.13;9.77;;;;;;;10.03;71.22;98678.56;5029261;28;20188;-91
2023/12/07 00:40:15;;;;;;;24.07;9.47;;;;;;;10.11;70.82;98686.81;5010849;28;20178;-90
2023/12/07 00:42:43;;;;;;;24.63;11.97;;;;;;;10.10;70.94;98689.50;5029840;28;20708;-90
2023/12/07 00:45:12;;;;;;;26.17;10.73;;;;;;;10.11;70.25;98691.22;5029722;28;20197;-92
2023/12/07 00:47:40;;;;;;;19.67;8.97;;;;;;;10.01;70.90;98693.50;5015964;28;20279;-90
2023/12/07 00:50:07;;;;;;;22.97;9.27;;;;;;;10.01;70.84;98688.25;5010836;28;20175;-90
2023/12/07 00:52:33;;;;;;;22.30;10.17;;;;;;;9.99;70.64;98695.38;5010805;28;20186;-90
2023/12/07 00:54:59;;;;;;;24.33;11.13;;;;;;;9.99;70.27;98692.75;5030562;28;20175;-90
2023/12/07 00:57:26;;;;;;;28.00;11.67;;;;;;;9.94;70.16;98694.78;5030581;28;20210;-91
2023/12/07 00:59:52;;;;;;;21.00;10.43;;;;;;;9.90;70.01;98701.16;5030417;28;20182;-91
2023/12/07 01:02:18;;;;;;;25.10;10.60;;;;;;;9.93;70.31;98708.81;5030315;28;20193;-91
2023/12/07 01:04:45;;;;;;;25.30;11.90;;;;;;;9.95;69.23;98703.50;5030287;28;20206;-91
2023/12/07 01:07:12;;;;;;;55.57;21.90;;;;;;;9.95;69.42;98693.88;5030747;28;20250;-91
2023/12/07 01:09:38;;;;;;;44.93;17.97;;;;;;;9.93;68.79;98695.75;5030230;28;20186;-91
2023/12/07 01:12:04;;;;;;;41.17;15.33;;;;;;;9.85;68.50;98695.31;5029127;28;20273;-90
2023/12/07 01:14:30;;;;;;;25.67;11.47;;;;;;;9.76;68.16;98687.97;5030045;28;20190;-89
2023/12/07 01:16:55;;;;;;;28.07;11.27;;;;;;;9.71;68.26;98684.78;5028965;28;20221;-90
2023/12/07 01:19:21;;;;;;;29.20;11.90;;;;;;;9.61;67.91;98684.47;5029113;28;20676;-90
2023/12/07 01:21:46;;;;;;;29.10;12.70;;;;;;;9.50;67.96;98678.97;5028759;28;20223;-90
2023/12/07 01:24:12;;;;;;;32.80;12.43;;;;;;;9.52;67.98;98681.50;5029191;28;20565;-90
2023/12/07 01:26:38;;;;;;;24.57;9.97;;;;;;;9.40;68.07;98682.19;5031172;28;20186;-89
2023/12/07 01:29:03;;;;;;;31.77;11.53;;;;;;;9.40;67.97;98679.56;5027367;28;20179;-91
2023/12/07 01:31:30;;;;;;;27.63;10.30;;;;;;;9.43;68.20;98677.63;5027647;28;20186;-90
2023/12/07 01:33:55;;;;;;;19.80;9.43;;;;;;;9.47;68.38;98675.66;5029143;28;20190;-90
2023/12/07 01:36:21;;;;;;;19.90;8.83;;;;;;;9.40;68.23;98671.72;5024602;28;20739;-90
2023/12/07 01:38:48;;;;;;;18.47;8.10;;;;;;;9.25;68.48;98669.00;5026363;28;20659;-91
2023/12/07 01:41:13;;;;;;;23.53;8.93;;;;;;;9.24;68.61;98664.72;5034401;28;20209;-90
2023/12/07 01:43:49;;;;;;;21.93;8.63;;;;;;;9.22;69.08;98665.72;5040757;28;20737;-90
2023/12/07 01:46:17;;;;;;;19.30;8.57;;;;;;;9.24;68.66;98667.34;5029057;28;20640;-90
2023/12/07 01:48:48;;;;;;;19.73;8.63;;;;;;;9.18;68.71;98665.03;5019666;28;20586;-91
2023/12/07 01:51:14;;;;;;;19.30;8.23;;;;;;;9.17;68.40;98668.56;5017006;28;20171;-90
2023/12/07 01:53:40;;;;;;;13.70;7.60;;;;;;;9.20;68.51;98673.66;5012595;28;20193;-90
2023/12/07 01:56:08;;;;;;;19.67;8.97;;;;;;;9.23;67.86;98673.47;5015566;28;20552;-89
2023/12/07 01:58:36;;;;;;;17.70;8.73;;;;;;;9.26;67.68;98675.94;5035074;28;20190;-90
2023/12/07 02:01:03;;;;;;;19.03;8.63;;;;;;;9.19;67.73;98677.22;5035315;28;20209;-90
2023/12/07 02:03:30;;;;;;;18.93;8.80;;;;;;;9.13;67.52;98672.31;5022032;28;20202;-89
2023/12/07 02:05:58;;;;;;;18.33;8.03;;;;;;;9.07;67.44;98666.53;5026578;28;20189;-90
2023/12/07 02:08:25;;;;;;;18.33;9.07;;;;;;;9.15;67.66;98664.34;5019941;28;20613;-90
2023/12/07 02:10:54;;;;;;;18.80;7.43;;;;;;;9.17;67.69;98663.34;5014474;28;20277;-90
2023/12/07 02:13:22;;;;;;;18.93;8.60;;;;;;;9.07;67.11;98662.16;5028305;28;20186;-90
2023/12/07 02:15:47;;;;;;;16.10;7.67;;;;;;;9.06;67.07;98670.94;5026411;28;20193;-90
2023/12/07 02:18:38;;;;;;;16.83;8.33;;;;;;;8.99;67.14;98677.41;5026499;28;20262;-90
2023/12/07 02:21:30;;;;;;;12.97;6.47;;;;;;;8.95;66.89;98677.66;5026712;28;20201;-90
2023/12/07 02:23:58;;;;;;;16.20;7.50;;;;;;;8.99;67.00;98674.78;5022509;28;20579;-91
2023/12/07 02:26:31;;;;;;;18.40;8.47;;;;;;;9.08;66.56;98670.84;5022444;28;20179;-90
2023/12/07 02:28:57;;;;;;;15.10;7.13;;;;;;;9.03;66.30;98673.72;5027977;28;20197;-90
2023/12/07 02:31:23;;;;;;;16.17;7.27;;;;;;;8.93;66.37;98680.38;5040611;28;20254;-90
2023/12/07 02:33:50;;;;;;;20.33;8.27;;;;;;;8.89;66.33;98677.97;5027499;28;20189;-90
2023/12/07 02:36:20;;;;;;;27.53;9.63;;;;;;;8.82;66.63;98677.47;5027402;28;20203;-89
2023/12/07 02:38:50;;;;;;;32.17;11.33;;;;;;;8.78;66.78;98680.34;5026522;28;20188;-90
2023/12/07 02:41:17;;;;;;;20.93;8.33;;;;;;;8.85;66.70;98679.94;5023187;28;20194;-90
2023/12/07 02:43:43;;;;;;;17.77;8.23;;;;;;;8.91;66.61;98684.81;5023194;28;20206;-89
2023/12/07 02:46:09;;;;;;;19.90;7.60;;;;;;;8.90;66.44;98685.75;5023196;28;20280;-90
2023/12/07 02:48:36;;;;;;;16.97;8.23;;;;;;;8.85;66.67;98679.94;5011452;28;20600;-89
2023/12/07 02:51:03;;;;;;;23.67;9.77;;;;;;;8.78;66.55;98675.13;5011459;28;20538;-90
2023/12/07 02:53:30;;;;;;;22.33;8.97;;;;;;;8.72;67.28;98671.06;5025147;28;20188;-90
2023/12/07 02:55:56;;;;;;;27.23;10.70;;;;;;;8.68;67.15;98679.97;5031120;28;20247;-89
2023/12/07 02:58:23;;;;;;;23.40;10.97;;;;;;;8.70;67.29;98680.72;5023829;28;20612;-90
2023/12/07 03:00:50;;;;;;;24.83;10.03;;;;;;;8.67;67.74;98677.44;5029454;28;20184;-90
2023/12/07 03:03:15;;;;;;;26.07;10.67;;;;;;;8.62;67.64;98680.28;5030634;28;20200;-90
2023/12/07 03:05:42;;;;;;;21.83;10.17;;;;;;;8.57;67.68;98687.50;5031680;28;20181;-90
2023/12/07 03:08:07;;;;;;;20.50;9.87;;;;;;;8.51;67.55;98680.84;5031820;28;20190;-90
2023/12/07 03:10:34;;;;;;;21.20;8.20;;;;;;;8.54;67.54;98677.22;5030788;28;20626;-89
2023/12/07 03:12:59;;;;;;;18.13;9.57;;;;;;;8.53;67.52;98685.97;5031982;28;20234;-90
2023/12/07 03:15:26;;;;;;;20.83;8.43;;;;;;;8.51;67.88;98688.69;5030676;28;20188;-90
2023/12/07 03:17:53;;;;;;;14.73;7.30;;;;;;;8.49;67.92;98681.84;5030417;28;20638;-89
2023/12/07 03:20:19;;;;;;;16.63;8.03;;;;;;;8.51;67.49;98683.47;5030252;28;20281;-90
2023/12/07 03:22:46;;;;;;;22.00;9.27;;;;;;;8.56;67.49;98680.59;5031583;28;20527;-90
2023/12/07 03:25:12;;;;;;;23.53;9.70;;;;;;;8.59;67.19;98677.84;5031306;28;20217;-89
2023/12/07 03:27:39;;;;;;;22.80;9.53;;;;;;;8.58;67.40;98670.91;5030569;28;20178;-89
2023/12/07 03:30:08;;;;;;;19.73;9.20;;;;;;;8.50;67.11;98673.94;5031405;28;20185;-90
2023/12/07 03:32:34;;;;;;;25.37;12.03;;;;;;;8.41;67.05;98677.00;5031145;28;20188;-90
2023/12/07 03:35:01;;;;;;;23.83;9.90;;;;;;;8.37;67.00;98679.84;5031846;28;20174;-90
2023/12/07 03:37:26;;;;;;;24.77;11.17;;;;;;;8.35;67.06;98682.56;5030549;28;20175;-90
2023/12/07 03:39:53;;;;;;;30.87;11.73;;;;;;;8.32;67.19;98687.06;5030294;28;20181;-90
2023/12/07 03:42:19;;;;;;;27.50;11.77;;;;;;;8.30;66.90;98689.78;5031459;28;20187;-90
2023/12/07 03:44:44;;;;;;;27.23;12.67;;;;;;;8.27;66.50;98682.09;5029883;28;20207;-89
2023/12/07 03:47:11;;;;;;;33.97;14.13;;;;;;;8.18;66.74;98684.25;5029818;28;20265;-89
2023/12/07 03:49:38;;;;;;;38.47;16.97;;;;;;;8.16;67.02;98686.97;5029855;28;20191;-89
2023/12/07 03:52:05;;;;;;;53.03;23.30;;;;;;;8.17;66.96;98685.22;5028792;28;20187;-90
2023/12/07 03:54:32;;;;;;;49.93;25.33;;;;;;;8.15;66.94;98694.88;5029626;28;20174;-89
2023/12/07 03:56:58;;;;;;;45.50;22.83;;;;;;;8.10;67.14;98695.09;5028358;28;20186;-88
2023/12/07 03:59:25;;;;;;;41.83;20.83;;;;;;;8.07;67.46;98693.47;5030672;28;20268;-89
2023/12/07 04:01:51;;;;;;;39.37;18.73;;;;;;;8.16;67.00;98693.94;5046303;28;20177;-89
2023/12/07 04:04:17;;;;;;;35.50;17.43;;;;;;;8.24;67.23;98689.19;5032877;28;20209;-90
2023/12/07 04:06:44;;;;;;;38.33;17.27;;;;;;;8.23;66.95;98687.53;5011087;28;20231;-90
2023/12/07 04:09:11;;;;;;;34.30;16.37;;;;;;;8.19;67.15;98686.81;5025882;28;20190;-90
2023/12/07 04:11:38;;;;;;;37.13;17.57;;;;;;;8.19;66.50;98689.44;5029879;28;20309;-89
2023/12/07 04:14:03;;;;;;;32.17;14.73;;;;;;;8.13;67.32;98692.34;5030465;28;20179;-89
2023/12/07 04:16:29;;;;;;;23.37;12.33;;;;;;;8.11;66.91;98690.72;5029419;28;20240;-89
2023/12/07 04:18:55;;;;;;;24.03;11.80;;;;;;;8.09;67.00;98687.34;5030800;28;20175;-90
2023/12/07 04:21:22;;;;;;;24.17;13.00;;;;;;;8.07;67.25;98696.09;5029767;28;20232;-90
2023/12/07 04:23:47;;;;;;;25.87;12.83;;;;;;;8.04;67.65;98687.59;5029834;28;20296;-90
2023/12/07 04:26:15;;;;;;;27.10;12.63;;;;;;;7.93;67.69;98688.13;5030582;28;20259;-89
2023/12/07 04:28:42;;;;;;;24.30;11.57;;;;;;;7.86;67.07;98689.31;5030825;28;20179;-90
2023/12/07 04:31:09;;;;;;;25.63;11.67;;;;;;;7.90;67.68;98684.81;5030209;28;20195;-89
2023/12/07 04:33:36;;;;;;;24.63;12.30;;;;;;;7.85;67.32;98687.66;5029205;28;20666;-89
2023/12/07 04:36:04;;;;;;;20.10;10.23;;;;;;;7.92;67.63;98691.63;5030844;28;20637;-90
2023/12/07 04:38:29;;;;;;;28.30;12.60;;;;;;;7.99;67.27;98690.41;5030367;28;20190;-90
2023/12/07 04:40:56;;;;;;;18.03;9.00;;;;;;;8.08;67.59;98689.09;5030979;28;20179;-89
2023/12/07 04:43:23;;;;;;;18.73;10.43;;;;;;;8.06;67.25;98680.53;5030020;28;20624;-90
2023/12/07 04:45:49;;;;;;;19.43;8.87;;;;;;;7.96;67.46;98680.13;5029369;28;20617;-90
2023/12/07 04:48:16;;;;;;;16.83;8.93;;;;;;;7.86;67.68;98681.47;5030359;28;20177;-90
2023/12/07 04:50:43;;;;;;;14.67;7.80;;;;;;;7.84;67.46;98680.72;5015089;28;20189;-90
2023/12/07 04:53:10;;;;;;;16.57;7.83;;;;;;;7.81;68.28;98680.00;5009593;28;20199;-88
2023/12/07 04:55:37;;;;;;;17.43;8.50;;;;;;;7.84;67.89;98680.72;5009851;28;20184;-90
2023/12/07 04:58:04;;;;;;;19.10;8.73;;;;;;;7.84;68.17;98680.72;5010421;28;20194;-89
2023/12/07 05:00:29;;;;;;;22.53;9.80;;;;;;;7.87;68.12;98670.13;5018186;28;20185;-89
2023/12/07 05:02:56;;;;;;;17.10;8.17;;;;;;;7.88;68.39;98682.28;5032748;28;20538;-89
2023/12/07 05:05:21;;;;;;;20.60;10.60;;;;;;;7.87;68.04;98685.78;5032613;28;20618;-89
2023/12/07 05:07:47;;;;;;;20.77;9.30;;;;;;;7.85;68.17;98684.19;5032198;28;20634;-89
2023/12/07 05:10:14;;;;;;;18.60;8.50;;;;;;;7.77;68.01;98700.22;5032467;28;20175;-89
2023/12/07 05:12:40;;;;;;;15.37;8.40;;;;;;;7.71;68.84;98699.66;5022507;28;20175;-89
2023/12/07 05:15:06;;;;;;;23.83;10.80;;;;;;;7.69;68.08;98702.34;5020691;28;20641;-89
2023/12/07 05:17:32;;;;;;;25.83;13.90;;;;;;;7.66;68.22;98709.44;5032085;28;20689;-90
2023/12/07 05:19:59;;;;;;;27.80;13.90;;;;;;;7.70;68.18;98714.47;5032397;28;20333;-89
2023/12/07 05:22:24;;;;;;;28.57;14.10;;;;;;;7.74;67.81;98716.00;5032466;28;20181;-89
2023/12/07 05:24:51;;;;;;;33.00;14.50;;;;;;;7.76;67.87;98722.00;5033020;28;20203;-89
2023/12/07 05:27:18;;;;;;;30.23;14.83;;;;;;;7.74;68.71;98721.22;5032388;28;20186;-89
2023/12/07 05:29:44;;;;;;;27.40;14.60;;;;;;;7.76;68.00;98714.16;5033057;28;20179;-88
2023/12/07 05:32:11;;;;;;;31.77;15.30;;;;;;;7.76;67.91;98722.00;5032100;28;20243;-88
2023/12/07 05:34:37;;;;;;;26.67;13.70;;;;;;;7.72;67.88;98712.63;5033461;28;20609;-88
2023/12/07 05:37:04;;;;;;;31.97;12.33;;;;;;;7.72;67.70;98723.06;5032016;28;20630;-89
2023/12/07 05:39:30;;;;;;;26.43;12.50;;;;;;;7.81;67.30;98722.59;5032109;28;20180;-89
2023/12/07 05:41:57;;;;;;;22.77;10.43;;;;;;;7.87;67.52;98730.16;5024281;28;20209;-89
2023/12/07 05:44:24;;;;;;;24.13;9.43;;;;;;;7.81;67.79;98733.03;5012323;28;20701;-89
2023/12/07 05:46:51;;;;;;;16.57;8.60;;;;;;;7.78;67.60;98733.19;5013482;28;20184;-90
2023/12/07 05:49:17;;;;;;;16.97;8.97;;;;;;;7.78;67.83;98743.63;5012134;28;20220;-89
2023/12/07 05:51:44;;;;;;;19.53;8.93;;;;;;;7.86;68.01;98738.88;4995837;28;20255;-89
2023/12/07 05:54:10;;;;;;;15.93;7.80;;;;;;;7.96;67.49;98739.31;5014851;28;20177;-88
2023/12/07 05:56:35;;;;;;;17.57;8.30;;;;;;;7.98;67.36;98735.72;5032823;28;20186;-89
2023/12/07 05:59:02;;;;;;;13.87;7.90;;;;;;;7.98;67.73;98740.94;5032613;28;20229;-89
2023/12/07 06:01:30;;;;;;;19.27;8.23;;;;;;;7.95;67.80;98746.28;5032620;28;20197;-89
2023/12/07 06:03:55;;;;;;;18.77;8.97;;;;;;;8.07;67.75;98738.78;5032726;28;20286;-89
2023/12/07 06:06:22;;;;;;;14.57;7.60;;;;;;;8.14;67.61;98734.94;5032699;28;20225;-89
2023/12/07 06:08:48;;;;;;;14.93;7.97;;;;;;;8.18;67.66;98736.47;5031625;28;20189;-89
2023/12/07 06:11:15;;;;;;;15.30;8.40;;;;;;;8.23;67.83;98745.78;5031270;28;20183;-89
2023/12/07 06:13:42;;;;;;;16.33;9.50;;;;;;;8.27;67.56;98751.72;5032871;28;20175;-90
2023/12/07 06:16:12;;;;;;;22.20;10.80;;;;;;;8.27;67.75;98755.19;5031584;28;20263;-90
2023/12/07 06:18:39;;;;;;;19.10;9.80;;;;;;;8.27;68.23;98757.81;5032446;28;20260;-89
2023/12/07 06:21:06;;;;;;;22.67;11.53;;;;;;;8.37;68.41;98758.19;5032349;28;20171;-89
2023/12/07 06:23:33;;;;;;;15.23;8.47;;;;;;;8.46;68.64;98755.13;5032518;28;20267;-90
2023/12/07 06:26:02;;;;;;;14.87;6.17;;;;;;;8.51;68.88;98760.97;5032983;28;20689;-90
2023/12/07 06:28:38;;;;;;;16.20;6.47;;;;;;;8.54;68.68;98755.59;5032724;28;20183;-90
2023/12/07 06:31:08;;;;;;;13.07;6.83;;;;;;;8.59;69.10;98761.44;5033198;28;20608;-90
2023/12/07 06:33:40;;;;;;;12.67;5.80;;;;;;;8.64;68.75;98762.03;5032556;28;20183;-90
2023/12/07 06:36:07;;;;;;;12.27;5.47;;;;;;;8.67;69.40;98761.88;5032862;28;20586;-89
2023/12/07 06:38:33;;;;;;;9.20;4.87;;;;;;;8.76;69.69;98760.56;5013255;28;20189;-89
2023/12/07 06:40:58;;;;;;;9.33;5.03;;;;;;;8.88;69.24;98757.31;5029634;28;20206;-90
2023/12/07 06:43:25;;;;;;;8.70;4.83;;;;;;;8.94;69.91;98757.00;5032060;28;20180;-90
2023/12/07 06:45:51;;;;;;;11.97;5.17;;;;;;;9.00;69.61;98754.91;5031242;28;20185;-90
2023/12/07 06:48:17;;;;;;;10.43;4.97;;;;;;;9.07;69.96;98752.81;5031745;28;20204;-89
2023/12/07 06:50:43;;;;;;;14.40;5.67;;;;;;;9.17;69.98;98757.47;5031155;28;20627;-89
2023/12/07 06:53:09;;;;;;;10.00;4.50;;;;;;;9.24;70.20;98753.63;5031694;28;20261;-89
2023/12/07 06:55:36;;;;;;;9.43;4.87;;;;;;;9.33;70.27;98764.53;5032155;28;20254;-90
2023/12/07 06:58:03;;;;;;;10.37;4.83;;;;;;;9.40;70.46;98763.25;5031184;28;20189;-90
2023/12/07 07:00:29;;;;;;;9.43;6.10;;;;;;;9.47;70.19;98756.75;5031117;28;20232;-90
2023/12/07 07:02:56;;;;;;;9.90;5.00;;;;;;;9.57;70.41;98748.34;5031200;28;20215;-90
2023/12/07 07:05:22;;;;;;;12.50;6.07;;;;;;;9.68;70.46;98758.22;5030866;28;20206;-89
2023/12/07 07:07:51;;;;;;;18.93;10.33;;;;;;;9.81;70.33;98764.47;5049638;28;20196;-90
2023/12/07 07:10:18;;;;;;;30.90;15.83;;;;;;;9.92;70.22;98762.09;5051618;28;20624;-90
2023/12/07 07:12:43;;;;;;;17.70;9.80;;;;;;;9.99;69.81;98766.06;5030783;28;20637;-90
2023/12/07 07:15:09;;;;;;;16.33;10.07;;;;;;;10.00;69.16;98764.28;5030686;28;20181;-91
2023/12/07 07:17:35;;;;;;;20.03;11.03;;;;;;;9.96;69.05;98773.25;5030485;28;20366;-89
2023/12/07 07:20:01;;;;;;;23.10;10.00;;;;;;;9.91;68.85;98776.09;5031649;28;20680;-90
2023/12/07 07:22:29;;;;;;;23.20;11.33;;;;;;;9.70;69.00;98777.28;5030650;28;20618;-90
2023/12/07 07:24:56;;;;;;;25.33;12.80;;;;;;;9.69;69.33;98775.63;5030502;28;20227;-90
2023/12/07 07:27:22;;;;;;;20.37;9.30;;;;;;;9.79;69.34;98787.28;5030807;28;20644;-90
2023/12/07 07:29:49;;;;;;;17.23;9.40;;;;;;;9.85;68.91;98784.31;5031401;28;20235;-90
2023/12/07 07:32:16;;;;;;;19.57;9.40;;;;;;;9.92;68.69;98785.66;5041011;28;20213;-90
2023/12/07 07:34:43;;;;;;;16.07;6.00;;;;;;;9.93;67.99;98784.75;5050289;28;20174;-90
2023/12/07 07:37:10;;;;;;;16.20;6.80;;;;;;;9.93;67.73;98782.13;5051492;28;20181;-90
2023/12/07 07:39:37;;;;;;;12.20;6.10;;;;;;;9.99;68.68;98794.00;5032456;28;20317;-91
2023/12/07 07:42:04;;;;;;;13.27;6.63;;;;;;;10.11;68.79;98794.19;5030487;28;20632;-90
2023/12/07 07:44:30;;;;;;;11.97;5.83;;;;;;;10.27;69.03;98794.19;5031240;28;20285;-90
2023/12/07 07:46:56;;;;;;;14.17;6.77;;;;;;;10.44;69.63;98794.91;5031784;28;20270;-90
2023/12/07 07:49:23;;;;;;;13.43;6.47;;;;;;;10.55;68.88;98796.06;5030254;28;20705;-91
2023/12/07 07:51:51;;;;;;;19.10;6.77;;;;;;;10.69;68.66;98798.75;5029999;28;20218;-91
2023/12/07 07:54:17;;;;;;;10.33;5.70;;;;;;;10.79;68.83;98800.75;5030444;28;20634;-91
2023/12/07 07:56:43;;;;;;;11.50;6.07;;;;;;;10.90;68.86;98805.34;5029939;28;20182;-90
2023/12/07 07:59:11;;;;;;;12.70;5.83;;;;;;;11.00;68.98;98796.00;5031229;28;20186;-91
2023/12/07 08:01:38;;;;;;;14.03;6.37;;;;;;;11.11;69.09;98796.19;5030952;28;20190;-90
2023/12/07 08:04:04;;;;;;;11.33;5.47;;;;;;;11.24;68.56;98793.69;5030657;28;20202;-90
2023/12/07 08:06:30;;;;;;;13.03;6.33;;;;;;;11.34;69.42;98795.66;5030847;28;20186;-90
2023/12/07 08:08:56;;;;;;;12.97;5.73;;;;;;;11.43;68.93;98795.09;5031214;28;20171;-90
2023/12/07 08:11:23;;;;;;;14.40;6.60;;;;;;;11.51;69.01;98795.47;5015737;28;20266;-91
2023/12/07 08:13:50;;;;;;;10.73;5.40;;;;;;;11.54;68.46;98805.78;5011175;28;20625;-90
2023/12/07 08:16:16;;;;;;;10.07;5.10;;;;;;;11.66;68.35;98801.56;5011301;28;20641;-91
2023/12/07 08:18:41;;;;;;;10.87;4.90;;;;;;;11.79;68.69;98802.50;5011834;28;20236;-90
2023/12/07 08:21:08;;;;;;;12.03;5.87;;;;;;;11.88;68.41;98801.06;5030038;28;20626;-90
2023/12/07 08:23:35;;;;;;;10.20;5.73;;;;;;;11.97;68.33;98803.13;5030844;28;20184;-91
2023/12/07 08:26:02;;;;;;;10.77;5.03;;;;;;;12.02;68.32;98808.94;5029820;28;20193;-90
2023/12/07 08:28:29;;;;;;;12.17;5.10;;;;;;;12.10;68.28;98814.53;5030126;28;20225;-91
2023/12/07 08:30:55;;;;;;;12.67;5.73;;;;;;;12.12;67.67;98817.91;5029673;28;20714;-91
2023/12/07 08:33:21;;;;;;;13.43;5.63;;;;;;;12.24;68.18;98817.97;5030476;28;20181;-91
2023/12/07 08:35:49;;;;;;;11.13;5.50;;;;;;;12.41;67.99;98821.28;5029191;28;20540;-90
2023/12/07 08:38:16;;;;;;;12.90;6.43;;;;;;;12.36;67.00;98811.06;5009882;28;20185;-91
2023/12/07 08:40:43;;;;;;;11.57;6.17;;;;;;;12.33;66.56;98817.38;5010976;28;20205;-91
2023/12/07 08:43:08;;;;;;;18.93;7.60;;;;;;;12.42;66.61;98818.53;5095586;28;20181;-91
2023/12/07 08:45:38;;;;;;;15.83;7.70;;;;;;;12.45;66.65;98813.09;5015276;28;20616;-92
2023/12/07 08:48:05;;;;;;;12.20;5.70;;;;;;;12.51;66.58;98823.22;5029566;28;20192;-91
2023/12/07 08:50:30;;;;;;;12.23;5.00;;;;;;;12.55;66.74;98816.81;5030906;28;20638;-91
2023/12/07 08:52:56;;;;;;;10.67;4.83;;;;;;;12.62;66.18;98812.00;5030428;28;20191;-91
2023/12/07 08:55:23;;;;;;;10.57;5.47;;;;;;;12.74;66.38;98814.66;5029956;28;20547;-92
2023/12/07 08:57:48;;;;;;;10.67;5.80;;;;;;;12.84;65.34;98809.66;5029369;28;20223;-91
2023/12/07 09:00:16;;;;;;;8.67;4.27;;;;;;;12.80;65.97;98809.00;5030179;28;20628;-92
2023/12/07 09:02:42;;;;;;;11.90;5.33;;;;;;;12.85;66.29;98806.03;5030360;28;20208;-92
2023/12/07 09:05:09;;;;;;;9.33;5.10;;;;;;;12.93;66.36;98798.50;5030298;28;20205;-91
2023/12/07 09:07:35;;;;;;;8.50;5.00;;;;;;;12.96;66.57;98803.53;5029608;28;20185;-91
2023/12/07 09:10:03;;;;;;;9.37;4.67;;;;;;;13.02;66.55;98797.88;5030543;28;20178;-92
2023/12/07 09:12:30;;;;;;;9.50;4.90;;;;;;;13.16;65.41;98796.94;5028998;28;20200;-91
2023/12/07 09:14:55;;;;;;;9.67;4.43;;;;;;;13.22;65.26;98791.28;5030727;28;20202;-92
2023/12/07 09:17:22;;;;;;;11.00;5.10;;;;;;;13.34;65.34;98790.41;5029131;28;20204;-92
2023/12/07 09:19:49;;;;;;;8.83;4.27;;;;;;;13.35;64.67;98800.00;5030267;28;20238;-92
2023/12/07 09:22:16;;;;;;;7.97;4.13;;;;;;;13.34;65.15;98795.69;5031609;28;20178;-91
2023/12/07 09:24:42;;;;;;;13.70;4.43;;;;;;;13.38;64.81;98795.38;5050562;28;20205;-91
2023/12/07 09:27:10;;;;;;;8.87;4.20;;;;;;;13.50;63.73;98791.88;5048988;28;20273;-92
2023/12/07 09:29:37;;;;;;;7.97;3.93;;;;;;;13.65;63.31;98783.88;5013593;28;20193;-91
2023/12/07 09:32:05;;;;;;;7.13;2.97;;;;;;;13.55;62.96;98786.28;5009609;28;20225;-92
2023/12/07 09:34:32;;;;;;;6.63;3.13;;;;;;;13.63;62.12;98780.47;5028641;28;20186;-91
2023/12/07 09:37:09;;;;;;;6.70;3.57;;;;;;;13.69;62.70;98780.91;5029182;28;20752;-93
2023/12/07 09:39:36;;;;;;;7.80;3.30;;;;;;;13.86;61.23;98774.44;5023371;28;20282;-93
2023/12/07 09:42:03;;;;;;;8.10;3.33;;;;;;;13.98;62.26;98771.78;5010270;28;20243;-92
2023/12/07 09:44:29;;;;;;;8.80;3.13;;;;;;;14.07;61.43;98772.91;5010718;28;20210;-93
2023/12/07 09:46:56;;;;;;;6.60;3.17;;;;;;;14.21;61.06;98767.47;5026104;28;20186;-92
2023/12/07 09:49:22;;;;;;;8.47;3.40;;;;;;;14.23;60.82;98762.09;5038553;28;20178;-92
2023/12/07 09:51:50;;;;;;;7.03;3.13;;;;;;;14.34;60.88;98757.72;5053488;28;20245;-93
2023/12/07 09:54:17;;;;;;;7.80;3.20;;;;;;;14.50;59.53;98762.72;5053456;28;20182;-92
2023/12/07 09:56:43;;;;;;;5.43;2.40;;;;;;;14.63;59.52;98763.47;5044427;28;20178;-94
2023/12/07 09:59:09;;;;;;;5.90;2.50;;;;;;;14.76;59.83;98751.88;5033606;28;20274;-92
2023/12/07 10:01:39;;;;;;;6.60;2.30;;;;;;;14.86;58.30;98752.03;5032918;28;20622;-92
2023/12/07 10:04:25;;;;;;;11.87;4.07;;;;;;;14.92;58.52;98756.00;5031776;28;20234;-91
2023/12/07 10:06:52;;;;;;;7.07;3.27;;;;;;;15.12;58.56;98753.50;5032748;28;20311;-92
2023/12/07 10:09:21;;;;;;;6.17;3.20;;;;;;;15.23;57.15;98748.25;5033450;28;20187;-92
2023/12/07 10:11:48;;;;;;;7.97;3.30;;;;;;;15.30;57.72;98751.25;5032554;28;20242;-92
2023/12/07 10:14:14;;;;;;;7.60;3.73;;;;;;;15.31;56.87;98748.50;5032993;28;20181;-92
2023/12/07 10:16:53;;;;;;;7.90;3.20;;;;;;;15.28;56.58;98743.44;5031968;28;20227;-93
2023/12/07 10:19:25;;;;;;;7.87;3.77;;;;;;;15.24;56.70;98736.72;5021995;28;20210;-94
2023/12/07 10:21:52;;;;;;;8.00;3.30;;;;;;;15.21;56.39;98736.97;5021569;28;20183;-93
2023/12/07 10:24:21;;;;;;;6.47;3.27;;;;;;;15.22;56.08;98740.47;5032071;28;20217;-92
2023/12/07 10:26:49;;;;;;;8.67;3.87;;;;;;;15.23;56.61;98740.31;5050579;28;20182;-93
2023/12/07 10:29:29;;;;;;;5.60;3.07;;;;;;;15.18;55.47;98742.47;5052165;28;20178;-93
2023/12/07 10:32:02;;;;;;;10.17;4.23;;;;;;;15.09;54.56;98745.00;5051545;28;20253;-94
2023/12/07 10:34:29;;;;;;;10.87;4.43;;;;;;;15.05;55.63;98730.34;5051754;28;20254;-93
2023/12/07 10:36:57;;;;;;;10.67;3.17;;;;;;;15.05;55.47;98732.97;5051255;28;20178;-92
2023/12/07 10:39:26;;;;;;;7.43;2.90;;;;;;;15.05;56.05;98735.63;5012269;28;20198;-92
2023/12/07 10:42:01;;;;;;;10.23;4.87;;;;;;;15.01;56.25;98727.13;5012007;28;20177;-93
2023/12/07 10:44:28;;;;;;;9.73;4.77;;;;;;;15.03;56.87;98733.13;5011820;28;20267;-92
2023/12/07 10:46:58;;;;;;;15.03;4.50;;;;;;;14.99;55.42;98725.56;5011958;28;20615;-93
2023/12/07 10:49:27;;;;;;;6.77;3.40;;;;;;;14.92;56.25;98725.16;5016692;28;20190;-92
2023/12/07 10:52:00;;;;;;;6.50;3.50;;;;;;;14.97;55.66;98725.66;5031692;28;20188;-95
2023/12/07 10:54:43;;;;;;;11.03;3.67;;;;;;;15.02;56.68;98725.28;5031679;28;20529;-93
2023/12/07 10:57:13;;;;;;;14.53;5.33;;;;;;;15.14;56.93;98730.50;5030197;28;20625;-94
2023/12/07 10:59:46;;;;;;;8.57;4.50;;;;;;;15.18;56.06;98729.28;5015433;28;20182;-93
2023/12/07 11:02:15;;;;;;;12.23;5.03;;;;;;;15.22;56.70;98730.75;5028352;28;20214;-93
2023/12/07 11:04:44;;;;;;;17.57;6.43;;;;;;;15.23;56.84;98734.19;5031380;28;20209;-92
2023/12/07 11:07:18;;;;;;;12.93;5.73;;;;;;;15.27;57.39;98723.31;5036448;28;20188;-93
2023/12/07 11:09:57;;;;;;;8.57;4.40;;;;;;;15.42;56.10;98717.75;5052406;28;20154;-93
2023/12/07 11:12:48;;;;;;;14.60;5.97;;;;;;;15.43;55.97;98714.16;5038158;28;20273;-94
2023/12/07 11:15:18;;;;;;;10.20;4.60;;;;;;;15.44;55.23;98710.53;5031399;28;20235;-94
2023/12/07 11:17:52;;;;;;;10.00;4.27;;;;;;;15.39;54.89;98713.56;5031124;28;20313;-93
2023/12/07 11:20:20;;;;;;;10.03;4.63;;;;;;;15.44;55.03;98721.09;5031175;28;20258;-92
2023/12/07 11:22:48;;;;;;;11.37;4.30;;;;;;;15.07;56.48;98715.22;5031100;28;20178;-93
2023/12/07 11:25:18;;;;;;;13.33;4.77;;;;;;;15.29;56.94;98723.16;5031743;28;20207;-93
2023/12/07 11:27:47;;;;;;;10.97;4.80;;;;;;;15.43;57.00;98714.16;5024600;28;20195;-93
2023/12/07 11:30:15;;;;;;;14.77;4.97;;;;;;;15.48;56.18;98707.59;5011341;28;20179;-94